sensor_id;sensor_type;location;lat;lon;timestamp;P1;durP1;ratioP1;P2;durP2;ratioP2
16073;SDS011;8141;52.664;5.074;2023-08-20T00:01:00;3.37;;;1.13;;
16073;SDS011;8141;52.664;5.074;2023-08-20T00:03:29;2.43;;;0.93;;
16073;SDS011;8141;52.664;5.074;2023-08-20T00:05:55;3.67;;;1.00;;
16073;SDS011;8141;52.664;5.074;2023-08-20T00:08:21;3.27;;;1.20;;
16073;SDS011;8141;52.664;5.074;2023-08-20T00:10:47;2.00;;;0.90;;
16073;SDS011;8141;52.664;5.074;2023-08-20T00:13:12;1.93;;;0.90;;
16073;SDS011;8141;52.664;5.074;2023-08-20T00:15:38;2.33;;;0.90;;
16073;SDS011;8141;52.664;5.074;2023-08-20T00:18:04;3.87;;;1.40;;
16073;SDS011;8141;52.664;5.074;2023-08-20T00:20:31;1.67;;;0.83;;
16073;SDS011;8141;52.664;5.074;2023-08-20T00:22:57;1.10;;;0.90;;
16073;SDS011;8141;52.664;5.074;2023-08-20T00:25:23;1.63;;;0.80;;
16073;SDS011;8141;52.664;5.074;2023-08-20T00:27:49;1.67;;;0.90;;
16073;SDS011;8141;52.664;5.074;2023-08-20T00:30:14;1.50;;;1.07;;
16073;SDS011;8141;52.664;5.074;2023-08-20T00:32:40;1.80;;;0.83;;
16073;SDS011;8141;52.664;5.074;2023-08-20T00:35:06;2.53;;;0.93;;
16073;SDS011;8141;52.664;5.074;2023-08-20T00:37:35;2.30;;;1.40;;
16073;SDS011;8141;52.664;5.074;2023-08-20T00:40:01;2.30;;;1.00;;
16073;SDS011;8141;52.664;5.074;2023-08-20T00:42:30;4.77;;;1.40;;
16073;SDS011;8141;52.664;5.074;2023-08-20T00:44:55;2.43;;;1.00;;
16073;SDS011;8141;52.664;5.074;2023-08-20T00:47:21;2.13;;;0.77;;
16073;SDS011;8141;52.664;5.074;2023-08-20T00:49:47;1.87;;;0.70;;
16073;SDS011;8141;52.664;5.074;2023-08-20T00:52:14;1.97;;;0.80;;
16073;SDS011;8141;52.664;5.074;2023-08-20T00:54:44;1.40;;;0.70;;
16073;SDS011;8141;52.664;5.074;2023-08-20T00:57:19;3.00;;;1.20;;
16073;SDS011;8141;52.664;5.074;2023-08-20T00:59:46;2.93;;;1.10;;
16073;SDS011;8141;52.664;5.074;2023-08-20T01:02:17;1.80;;;0.90;;
16073;SDS011;8141;52.664;5.074;2023-08-20T01:04:43;2.33;;;0.70;;
16073;SDS011;8141;52.664;5.074;2023-08-20T01:07:24;1.70;;;0.83;;
16073;SDS011;8141;52.664;5.074;2023-08-20T01:12:55;1.27;;;0.77;;
16073;SDS011;8141;52.664;5.074;2023-08-20T01:15:21;0.63;;;0.50;;
16073;SDS011;8141;52.664;5.074;2023-08-20T01:17:48;2.43;;;0.83;;
16073;SDS011;8141;52.664;5.074;2023-08-20T01:20:14;1.10;;;0.63;;
16073;SDS011;8141;52.664;5.074;2023-08-20T01:28:33;1.07;;;0.70;;
16073;SDS011;8141;52.664;5.074;2023-08-20T01:31:00;1.10;;;0.70;;
16073;SDS011;8141;52.664;5.074;2023-08-20T01:33:26;1.70;;;0.77;;
16073;SDS011;8141;52.664;5.074;2023-08-20T01:35:53;1.83;;;0.90;;
16073;SDS011;8141;52.664;5.074;2023-08-20T01:38:20;1.43;;;0.60;;
16073;SDS011;8141;52.664;5.074;2023-08-20T01:40:47;1.30;;;0.80;;
16073;SDS011;8141;52.664;5.074;2023-08-20T01:43:13;1.73;;;0.90;;
16073;SDS011;8141;52.664;5.074;2023-08-20T01:45:41;2.60;;;0.60;;
16073;SDS011;8141;52.664;5.074;2023-08-20T01:48:07;1.77;;;0.70;;
16073;SDS011;8141;52.664;5.074;2023-08-20T01:50:33;1.50;;;0.70;;
16073;SDS011;8141;52.664;5.074;2023-08-20T01:53:00;1.20;;;0.60;;
16073;SDS011;8141;52.664;5.074;2023-08-20T01:55:27;2.37;;;0.70;;
16073;SDS011;8141;52.664;5.074;2023-08-20T01:57:53;0.80;;;0.57;;
16073;SDS011;8141;52.664;5.074;2023-08-20T02:00:19;0.70;;;0.50;;
16073;SDS011;8141;52.664;5.074;2023-08-20T02:02:45;1.47;;;0.80;;
16073;SDS011;8141;52.664;5.074;2023-08-20T02:05:10;0.87;;;0.67;;
16073;SDS011;8141;52.664;5.074;2023-08-20T02:07:36;1.37;;;0.70;;
16073;SDS011;8141;52.664;5.074;2023-08-20T02:10:02;1.07;;;0.70;;
16073;SDS011;8141;52.664;5.074;2023-08-20T02:12:28;1.93;;;0.97;;
16073;SDS011;8141;52.664;5.074;2023-08-20T02:14:54;1.30;;;0.60;;
16073;SDS011;8141;52.664;5.074;2023-08-20T02:17:20;0.90;;;0.60;;
16073;SDS011;8141;52.664;5.074;2023-08-20T02:19:46;1.47;;;0.70;;
16073;SDS011;8141;52.664;5.074;2023-08-20T02:22:12;0.50;;;0.50;;
16073;SDS011;8141;52.664;5.074;2023-08-20T02:24:37;1.20;;;0.67;;
16073;SDS011;8141;52.664;5.074;2023-08-20T02:27:03;0.60;;;0.40;;
16073;SDS011;8141;52.664;5.074;2023-08-20T02:29:29;1.07;;;0.70;;
16073;SDS011;8141;52.664;5.074;2023-08-20T02:31:55;1.13;;;0.60;;
16073;SDS011;8141;52.664;5.074;2023-08-20T02:34:20;0.93;;;0.70;;
16073;SDS011;8141;52.664;5.074;2023-08-20T02:36:47;0.90;;;0.50;;
16073;SDS011;8141;52.664;5.074;2023-08-20T02:39:13;1.10;;;0.60;;
16073;SDS011;8141;52.664;5.074;2023-08-20T02:41:39;0.97;;;0.63;;
16073;SDS011;8141;52.664;5.074;2023-08-20T02:44:06;0.67;;;0.50;;
16073;SDS011;8141;52.664;5.074;2023-08-20T02:46:32;0.67;;;0.40;;
16073;SDS011;8141;52.664;5.074;2023-08-20T02:48:57;0.50;;;0.50;;
16073;SDS011;8141;52.664;5.074;2023-08-20T02:51:23;0.97;;;0.63;;
16073;SDS011;8141;52.664;5.074;2023-08-20T02:53:49;1.60;;;0.67;;
16073;SDS011;8141;52.664;5.074;2023-08-20T02:56:15;2.43;;;0.60;;
16073;SDS011;8141;52.664;5.074;2023-08-20T02:58:40;0.93;;;0.70;;
16073;SDS011;8141;52.664;5.074;2023-08-20T03:01:06;0.60;;;0.60;;
16073;SDS011;8141;52.664;5.074;2023-08-20T03:03:32;1.20;;;0.60;;
16073;SDS011;8141;52.664;5.074;2023-08-20T03:05:58;1.40;;;0.77;;
16073;SDS011;8141;52.664;5.074;2023-08-20T03:08:23;0.60;;;0.43;;
16073;SDS011;8141;52.664;5.074;2023-08-20T03:10:49;1.30;;;0.53;;
16073;SDS011;8141;52.664;5.074;2023-08-20T03:13:15;1.30;;;0.70;;
16073;SDS011;8141;52.664;5.074;2023-08-20T03:15:40;0.50;;;0.30;;
16073;SDS011;8141;52.664;5.074;2023-08-20T03:18:06;0.80;;;0.53;;
16073;SDS011;8141;52.664;5.074;2023-08-20T03:20:32;0.57;;;0.53;;
16073;SDS011;8141;52.664;5.074;2023-08-20T03:22:58;0.87;;;0.50;;
16073;SDS011;8141;52.664;5.074;2023-08-20T03:25:24;0.30;;;0.30;;
16073;SDS011;8141;52.664;5.074;2023-08-20T03:27:51;0.67;;;0.40;;
16073;SDS011;8141;52.664;5.074;2023-08-20T03:30:17;0.47;;;0.30;;
16073;SDS011;8141;52.664;5.074;2023-08-20T03:32:42;1.30;;;0.60;;
16073;SDS011;8141;52.664;5.074;2023-08-20T03:35:08;0.40;;;0.40;;
16073;SDS011;8141;52.664;5.074;2023-08-20T03:37:34;0.73;;;0.50;;
16073;SDS011;8141;52.664;5.074;2023-08-20T03:40:00;0.60;;;0.40;;
16073;SDS011;8141;52.664;5.074;2023-08-20T03:42:29;1.50;;;0.60;;
16073;SDS011;8141;52.664;5.074;2023-08-20T03:44:55;1.13;;;0.60;;
16073;SDS011;8141;52.664;5.074;2023-08-20T03:47:21;0.43;;;0.40;;
16073;SDS011;8141;52.664;5.074;2023-08-20T03:49:47;0.70;;;0.40;;
16073;SDS011;8141;52.664;5.074;2023-08-20T03:52:13;1.53;;;0.40;;
16073;SDS011;8141;52.664;5.074;2023-08-20T03:54:39;1.93;;;0.60;;
16073;SDS011;8141;52.664;5.074;2023-08-20T03:57:05;0.67;;;0.37;;
16073;SDS011;8141;52.664;5.074;2023-08-20T03:59:31;0.40;;;0.30;;
16073;SDS011;8141;52.664;5.074;2023-08-20T04:01:57;1.37;;;0.50;;
16073;SDS011;8141;52.664;5.074;2023-08-20T04:04:23;0.67;;;0.60;;
16073;SDS011;8141;52.664;5.074;2023-08-20T04:06:48;0.80;;;0.43;;
16073;SDS011;8141;52.664;5.074;2023-08-20T04:09:15;1.23;;;0.60;;
16073;SDS011;8141;52.664;5.074;2023-08-20T04:11:41;0.80;;;0.40;;
16073;SDS011;8141;52.664;5.074;2023-08-20T04:14:07;1.03;;;0.53;;
16073;SDS011;8141;52.664;5.074;2023-08-20T04:16:33;0.50;;;0.40;;
16073;SDS011;8141;52.664;5.074;2023-08-20T04:18:59;0.43;;;0.33;;
16073;SDS011;8141;52.664;5.074;2023-08-20T04:21:24;0.50;;;0.30;;
16073;SDS011;8141;52.664;5.074;2023-08-20T04:23:50;0.77;;;0.37;;
16073;SDS011;8141;52.664;5.074;2023-08-20T04:26:16;0.77;;;0.40;;
16073;SDS011;8141;52.664;5.074;2023-08-20T04:28:42;0.67;;;0.40;;
16073;SDS011;8141;52.664;5.074;2023-08-20T04:31:08;0.50;;;0.40;;
16073;SDS011;8141;52.664;5.074;2023-08-20T04:33:33;0.83;;;0.50;;
16073;SDS011;8141;52.664;5.074;2023-08-20T04:35:59;0.47;;;0.40;;
16073;SDS011;8141;52.664;5.074;2023-08-20T04:38:25;1.40;;;0.20;;
16073;SDS011;8141;52.664;5.074;2023-08-20T04:40:51;1.97;;;0.67;;
16073;SDS011;8141;52.664;5.074;2023-08-20T04:43:16;1.80;;;0.50;;
16073;SDS011;8141;52.664;5.074;2023-08-20T04:45:42;0.53;;;0.40;;
16073;SDS011;8141;52.664;5.074;2023-08-20T04:48:08;0.87;;;0.60;;
16073;SDS011;8141;52.664;5.074;2023-08-20T04:50:34;1.30;;;0.40;;
16073;SDS011;8141;52.664;5.074;2023-08-20T04:52:59;0.60;;;0.47;;
16073;SDS011;8141;52.664;5.074;2023-08-20T04:55:25;0.30;;;0.30;;
16073;SDS011;8141;52.664;5.074;2023-08-20T04:57:52;1.10;;;0.50;;
16073;SDS011;8141;52.664;5.074;2023-08-20T05:00:18;0.50;;;0.40;;
16073;SDS011;8141;52.664;5.074;2023-08-20T05:02:44;0.80;;;0.40;;
16073;SDS011;8141;52.664;5.074;2023-08-20T05:05:10;0.67;;;0.67;;
16073;SDS011;8141;52.664;5.074;2023-08-20T05:07:36;1.00;;;0.60;;
16073;SDS011;8141;52.664;5.074;2023-08-20T05:10:02;1.20;;;0.50;;
16073;SDS011;8141;52.664;5.074;2023-08-20T05:12:28;0.70;;;0.30;;
16073;SDS011;8141;52.664;5.074;2023-08-20T05:14:54;1.70;;;0.40;;
16073;SDS011;8141;52.664;5.074;2023-08-20T05:17:20;1.00;;;0.50;;
16073;SDS011;8141;52.664;5.074;2023-08-20T05:19:45;0.53;;;0.50;;
16073;SDS011;8141;52.664;5.074;2023-08-20T05:22:11;1.30;;;0.40;;
16073;SDS011;8141;52.664;5.074;2023-08-20T05:24:37;0.60;;;0.40;;
16073;SDS011;8141;52.664;5.074;2023-08-20T05:27:07;0.97;;;0.50;;
16073;SDS011;8141;52.664;5.074;2023-08-20T05:29:34;2.20;;;0.50;;
16073;SDS011;8141;52.664;5.074;2023-08-20T05:32:01;0.77;;;0.57;;
16073;SDS011;8141;52.664;5.074;2023-08-20T05:34:27;0.93;;;0.60;;
16073;SDS011;8141;52.664;5.074;2023-08-20T05:36:52;0.47;;;0.23;;
16073;SDS011;8141;52.664;5.074;2023-08-20T05:39:18;0.40;;;0.40;;
16073;SDS011;8141;52.664;5.074;2023-08-20T05:41:44;0.73;;;0.40;;
16073;SDS011;8141;52.664;5.074;2023-08-20T05:44:10;1.30;;;0.47;;
16073;SDS011;8141;52.664;5.074;2023-08-20T05:46:35;0.87;;;0.50;;
16073;SDS011;8141;52.664;5.074;2023-08-20T05:49:01;0.67;;;0.40;;
16073;SDS011;8141;52.664;5.074;2023-08-20T05:51:27;0.73;;;0.50;;
16073;SDS011;8141;52.664;5.074;2023-08-20T05:53:53;0.53;;;0.40;;
16073;SDS011;8141;52.664;5.074;2023-08-20T05:56:19;0.60;;;0.40;;
16073;SDS011;8141;52.664;5.074;2023-08-20T05:58:44;0.80;;;0.50;;
16073;SDS011;8141;52.664;5.074;2023-08-20T06:01:11;1.40;;;0.50;;
16073;SDS011;8141;52.664;5.074;2023-08-20T06:03:36;0.70;;;0.50;;
16073;SDS011;8141;52.664;5.074;2023-08-20T06:06:02;1.07;;;0.40;;
16073;SDS011;8141;52.664;5.074;2023-08-20T06:08:28;0.47;;;0.47;;
16073;SDS011;8141;52.664;5.074;2023-08-20T06:10:54;0.50;;;0.40;;
16073;SDS011;8141;52.664;5.074;2023-08-20T06:13:19;1.07;;;0.40;;
16073;SDS011;8141;52.664;5.074;2023-08-20T06:15:45;2.43;;;0.70;;
16073;SDS011;8141;52.664;5.074;2023-08-20T06:18:11;2.80;;;0.90;;
16073;SDS011;8141;52.664;5.074;2023-08-20T06:20:37;3.80;;;0.80;;
16073;SDS011;8141;52.664;5.074;2023-08-20T06:23:02;3.97;;;1.07;;
16073;SDS011;8141;52.664;5.074;2023-08-20T06:25:28;7.23;;;1.50;;
16073;SDS011;8141;52.664;5.074;2023-08-20T06:27:54;6.63;;;1.33;;
16073;SDS011;8141;52.664;5.074;2023-08-20T06:30:20;4.53;;;1.47;;
16073;SDS011;8141;52.664;5.074;2023-08-20T06:32:45;7.30;;;1.57;;
16073;SDS011;8141;52.664;5.074;2023-08-20T06:35:11;5.23;;;2.03;;
16073;SDS011;8141;52.664;5.074;2023-08-20T06:37:40;4.77;;;1.73;;
16073;SDS011;8141;52.664;5.074;2023-08-20T06:40:06;4.00;;;1.50;;
16073;SDS011;8141;52.664;5.074;2023-08-20T06:42:33;9.43;;;2.10;;
16073;SDS011;8141;52.664;5.074;2023-08-20T06:44:59;9.83;;;2.20;;
16073;SDS011;8141;52.664;5.074;2023-08-20T06:47:24;6.60;;;2.17;;
16073;SDS011;8141;52.664;5.074;2023-08-20T06:49:50;9.93;;;2.40;;
16073;SDS011;8141;52.664;5.074;2023-08-20T06:52:16;9.87;;;1.90;;
16073;SDS011;8141;52.664;5.074;2023-08-20T06:54:42;26.63;;;6.13;;
16073;SDS011;8141;52.664;5.074;2023-08-20T06:57:09;28.57;;;7.67;;
16073;SDS011;8141;52.664;5.074;2023-08-20T06:59:35;41.80;;;10.53;;
16073;SDS011;8141;52.664;5.074;2023-08-20T07:02:01;38.60;;;9.27;;
16073;SDS011;8141;52.664;5.074;2023-08-20T07:04:28;46.97;;;11.43;;
16073;SDS011;8141;52.664;5.074;2023-08-20T07:06:54;41.80;;;10.20;;
16073;SDS011;8141;52.664;5.074;2023-08-20T07:09:20;38.83;;;9.33;;
16073;SDS011;8141;52.664;5.074;2023-08-20T07:11:45;30.67;;;8.87;;
16073;SDS011;8141;52.664;5.074;2023-08-20T07:14:11;31.30;;;9.23;;
16073;SDS011;8141;52.664;5.074;2023-08-20T07:16:37;29.97;;;8.67;;
16073;SDS011;8141;52.664;5.074;2023-08-20T07:19:03;36.90;;;9.50;;
16073;SDS011;8141;52.664;5.074;2023-08-20T07:21:29;24.07;;;7.13;;
16073;SDS011;8141;52.664;5.074;2023-08-20T07:23:54;25.23;;;8.07;;
16073;SDS011;8141;52.664;5.074;2023-08-20T07:26:21;23.27;;;7.63;;
16073;SDS011;8141;52.664;5.074;2023-08-20T07:28:47;29.30;;;7.63;;
16073;SDS011;8141;52.664;5.074;2023-08-20T07:31:28;26.40;;;7.27;;
16073;SDS011;8141;52.664;5.074;2023-08-20T07:33:56;25.23;;;7.63;;
16073;SDS011;8141;52.664;5.074;2023-08-20T07:36:25;23.10;;;7.20;;
16073;SDS011;8141;52.664;5.074;2023-08-20T07:38:52;25.60;;;7.33;;
16073;SDS011;8141;52.664;5.074;2023-08-20T07:41:18;23.70;;;7.53;;
16073;SDS011;8141;52.664;5.074;2023-08-20T07:43:45;21.37;;;7.17;;
16073;SDS011;8141;52.664;5.074;2023-08-20T07:46:12;20.77;;;6.87;;
16073;SDS011;8141;52.664;5.074;2023-08-20T07:48:38;24.50;;;7.80;;
16073;SDS011;8141;52.664;5.074;2023-08-20T07:51:04;19.47;;;6.37;;
16073;SDS011;8141;52.664;5.074;2023-08-20T07:53:31;19.63;;;6.30;;
16073;SDS011;8141;52.664;5.074;2023-08-20T07:55:58;20.50;;;6.80;;
16073;SDS011;8141;52.664;5.074;2023-08-20T07:58:25;16.93;;;5.83;;
16073;SDS011;8141;52.664;5.074;2023-08-20T08:00:51;18.87;;;6.40;;
16073;SDS011;8141;52.664;5.074;2023-08-20T08:03:16;19.07;;;5.50;;
16073;SDS011;8141;52.664;5.074;2023-08-20T08:05:46;16.97;;;5.40;;
16073;SDS011;8141;52.664;5.074;2023-08-20T08:08:13;18.10;;;5.87;;
16073;SDS011;8141;52.664;5.074;2023-08-20T08:10:41;16.20;;;6.13;;
16073;SDS011;8141;52.664;5.074;2023-08-20T08:13:09;15.23;;;5.40;;
16073;SDS011;8141;52.664;5.074;2023-08-20T08:15:38;16.77;;;6.40;;
16073;SDS011;8141;52.664;5.074;2023-08-20T08:18:04;15.00;;;5.63;;
16073;SDS011;8141;52.664;5.074;2023-08-20T08:20:31;15.87;;;4.80;;
16073;SDS011;8141;52.664;5.074;2023-08-20T08:22:57;15.87;;;5.20;;
16073;SDS011;8141;52.664;5.074;2023-08-20T08:25:23;17.13;;;5.90;;
16073;SDS011;8141;52.664;5.074;2023-08-20T08:27:48;16.37;;;5.37;;
16073;SDS011;8141;52.664;5.074;2023-08-20T08:30:14;17.43;;;6.13;;
16073;SDS011;8141;52.664;5.074;2023-08-20T08:32:40;15.53;;;5.53;;
16073;SDS011;8141;52.664;5.074;2023-08-20T08:35:06;12.23;;;4.83;;
16073;SDS011;8141;52.664;5.074;2023-08-20T08:37:32;12.80;;;5.00;;
16073;SDS011;8141;52.664;5.074;2023-08-20T08:39:58;13.53;;;4.00;;
16073;SDS011;8141;52.664;5.074;2023-08-20T08:42:24;10.57;;;4.70;;
16073;SDS011;8141;52.664;5.074;2023-08-20T08:44:50;10.90;;;3.90;;
16073;SDS011;8141;52.664;5.074;2023-08-20T08:47:17;11.57;;;4.53;;
16073;SDS011;8141;52.664;5.074;2023-08-20T08:49:44;11.27;;;4.47;;
16073;SDS011;8141;52.664;5.074;2023-08-20T08:52:12;10.47;;;4.07;;
16073;SDS011;8141;52.664;5.074;2023-08-20T08:54:38;11.37;;;4.40;;
16073;SDS011;8141;52.664;5.074;2023-08-20T08:57:04;15.37;;;5.43;;
16073;SDS011;8141;52.664;5.074;2023-08-20T08:59:30;11.83;;;4.17;;
16073;SDS011;8141;52.664;5.074;2023-08-20T09:01:57;12.37;;;4.80;;
16073;SDS011;8141;52.664;5.074;2023-08-20T09:04:23;11.80;;;3.97;;
16073;SDS011;8141;52.664;5.074;2023-08-20T09:06:52;10.90;;;3.90;;
16073;SDS011;8141;52.664;5.074;2023-08-20T09:09:21;9.33;;;3.50;;
16073;SDS011;8141;52.664;5.074;2023-08-20T09:11:47;9.97;;;3.40;;
16073;SDS011;8141;52.664;5.074;2023-08-20T09:14:20;10.70;;;4.67;;
16073;SDS011;8141;52.664;5.074;2023-08-20T09:16:55;8.47;;;3.47;;
16073;SDS011;8141;52.664;5.074;2023-08-20T09:19:29;9.63;;;3.90;;
16073;SDS011;8141;52.664;5.074;2023-08-20T09:22:02;10.47;;;3.57;;
16073;SDS011;8141;52.664;5.074;2023-08-20T09:24:51;10.43;;;3.93;;
16073;SDS011;8141;52.664;5.074;2023-08-20T09:27:21;9.70;;;3.80;;
16073;SDS011;8141;52.664;5.074;2023-08-20T09:32:15;6.40;;;3.07;;
16073;SDS011;8141;52.664;5.074;2023-08-20T09:34:43;9.10;;;3.93;;
16073;SDS011;8141;52.664;5.074;2023-08-20T09:37:13;6.97;;;3.23;;
16073;SDS011;8141;52.664;5.074;2023-08-20T09:39:40;10.57;;;3.70;;
16073;SDS011;8141;52.664;5.074;2023-08-20T09:42:06;7.83;;;3.50;;
16073;SDS011;8141;52.664;5.074;2023-08-20T09:44:33;8.30;;;3.00;;
16073;SDS011;8141;52.664;5.074;2023-08-20T09:47:14;8.80;;;3.80;;
16073;SDS011;8141;52.664;5.074;2023-08-20T09:49:42;8.97;;;3.63;;
16073;SDS011;8141;52.664;5.074;2023-08-20T09:52:16;7.17;;;2.90;;
16073;SDS011;8141;52.664;5.074;2023-08-20T09:54:54;9.50;;;3.23;;
16073;SDS011;8141;52.664;5.074;2023-08-20T09:57:37;8.73;;;3.00;;
16073;SDS011;8141;52.664;5.074;2023-08-20T10:00:05;6.50;;;2.77;;
16073;SDS011;8141;52.664;5.074;2023-08-20T10:02:37;9.00;;;2.57;;
16073;SDS011;8141;52.664;5.074;2023-08-20T10:05:08;7.27;;;2.70;;
16073;SDS011;8141;52.664;5.074;2023-08-20T10:07:36;5.80;;;2.57;;
16073;SDS011;8141;52.664;5.074;2023-08-20T10:10:03;10.50;;;2.60;;
16073;SDS011;8141;52.664;5.074;2023-08-20T10:12:31;6.70;;;2.70;;
16073;SDS011;8141;52.664;5.074;2023-08-20T10:14:57;6.33;;;2.47;;
16073;SDS011;8141;52.664;5.074;2023-08-20T10:17:25;5.03;;;2.30;;
16073;SDS011;8141;52.664;5.074;2023-08-20T10:19:54;6.70;;;2.60;;
16073;SDS011;8141;52.664;5.074;2023-08-20T10:22:22;6.63;;;2.83;;
16073;SDS011;8141;52.664;5.074;2023-08-20T10:24:57;7.27;;;2.40;;
16073;SDS011;8141;52.664;5.074;2023-08-20T10:29:53;6.53;;;2.30;;
16073;SDS011;8141;52.664;5.074;2023-08-20T10:32:20;6.20;;;2.67;;
16073;SDS011;8141;52.664;5.074;2023-08-20T10:35:08;5.03;;;2.20;;
16073;SDS011;8141;52.664;5.074;2023-08-20T10:37:34;4.53;;;2.67;;
16073;SDS011;8141;52.664;5.074;2023-08-20T10:40:02;5.83;;;2.63;;
16073;SDS011;8141;52.664;5.074;2023-08-20T10:42:29;5.50;;;2.00;;
16073;SDS011;8141;52.664;5.074;2023-08-20T10:44:58;3.70;;;2.10;;
16073;SDS011;8141;52.664;5.074;2023-08-20T10:47:37;4.17;;;2.20;;
16073;SDS011;8141;52.664;5.074;2023-08-20T10:50:23;4.40;;;2.27;;
16073;SDS011;8141;52.664;5.074;2023-08-20T10:52:49;7.73;;;2.40;;
16073;SDS011;8141;52.664;5.074;2023-08-20T10:55:22;6.90;;;2.57;;
16073;SDS011;8141;52.664;5.074;2023-08-20T10:57:57;5.67;;;2.90;;
16073;SDS011;8141;52.664;5.074;2023-08-20T11:00:24;5.87;;;2.50;;
16073;SDS011;8141;52.664;5.074;2023-08-20T11:02:51;5.10;;;2.40;;
16073;SDS011;8141;52.664;5.074;2023-08-20T11:05:20;5.50;;;2.40;;
16073;SDS011;8141;52.664;5.074;2023-08-20T11:07:47;4.03;;;2.00;;
16073;SDS011;8141;52.664;5.074;2023-08-20T11:10:16;6.00;;;2.30;;
16073;SDS011;8141;52.664;5.074;2023-08-20T11:12:45;7.00;;;2.47;;
16073;SDS011;8141;52.664;5.074;2023-08-20T11:15:11;3.90;;;1.80;;
16073;SDS011;8141;52.664;5.074;2023-08-20T11:17:41;4.23;;;2.10;;
16073;SDS011;8141;52.664;5.074;2023-08-20T11:20:10;5.17;;;2.37;;
16073;SDS011;8141;52.664;5.074;2023-08-20T11:22:39;4.10;;;1.83;;
16073;SDS011;8141;52.664;5.074;2023-08-20T11:25:06;4.33;;;2.10;;
16073;SDS011;8141;52.664;5.074;2023-08-20T11:27:40;4.07;;;2.20;;
16073;SDS011;8141;52.664;5.074;2023-08-20T11:30:07;3.40;;;1.83;;
16073;SDS011;8141;52.664;5.074;2023-08-20T11:32:37;4.60;;;2.10;;
16073;SDS011;8141;52.664;5.074;2023-08-20T11:35:03;4.37;;;2.20;;
16073;SDS011;8141;52.664;5.074;2023-08-20T11:37:30;3.67;;;2.00;;
16073;SDS011;8141;52.664;5.074;2023-08-20T11:39:56;4.63;;;2.07;;
16073;SDS011;8141;52.664;5.074;2023-08-20T11:42:22;3.60;;;1.80;;
16073;SDS011;8141;52.664;5.074;2023-08-20T11:44:48;3.63;;;1.80;;
16073;SDS011;8141;52.664;5.074;2023-08-20T11:47:17;4.83;;;1.90;;
16073;SDS011;8141;52.664;5.074;2023-08-20T11:49:44;3.57;;;1.80;;
16073;SDS011;8141;52.664;5.074;2023-08-20T11:52:10;3.63;;;1.70;;
16073;SDS011;8141;52.664;5.074;2023-08-20T11:54:38;5.10;;;2.03;;
16073;SDS011;8141;52.664;5.074;2023-08-20T11:57:04;3.80;;;2.07;;
16073;SDS011;8141;52.664;5.074;2023-08-20T11:59:31;5.33;;;2.30;;
16073;SDS011;8141;52.664;5.074;2023-08-20T12:01:59;3.63;;;1.47;;
16073;SDS011;8141;52.664;5.074;2023-08-20T12:04:28;3.90;;;2.10;;
16073;SDS011;8141;52.664;5.074;2023-08-20T12:07:02;4.07;;;2.00;;
16073;SDS011;8141;52.664;5.074;2023-08-20T12:09:38;3.50;;;1.80;;
16073;SDS011;8141;52.664;5.074;2023-08-20T12:12:05;4.67;;;2.10;;
16073;SDS011;8141;52.664;5.074;2023-08-20T12:14:33;3.30;;;1.73;;
16073;SDS011;8141;52.664;5.074;2023-08-20T12:16:59;3.40;;;2.20;;
16073;SDS011;8141;52.664;5.074;2023-08-20T12:19:25;3.10;;;1.97;;
16073;SDS011;8141;52.664;5.074;2023-08-20T12:21:51;2.80;;;1.70;;
16073;SDS011;8141;52.664;5.074;2023-08-20T12:24:17;4.30;;;2.30;;
16073;SDS011;8141;52.664;5.074;2023-08-20T12:26:46;4.20;;;2.00;;
16073;SDS011;8141;52.664;5.074;2023-08-20T12:29:12;5.27;;;2.23;;
16073;SDS011;8141;52.664;5.074;2023-08-20T12:31:38;3.87;;;2.13;;
16073;SDS011;8141;52.664;5.074;2023-08-20T12:34:05;3.23;;;1.83;;
16073;SDS011;8141;52.664;5.074;2023-08-20T12:36:31;6.87;;;3.00;;
16073;SDS011;8141;52.664;5.074;2023-08-20T12:38:56;3.20;;;1.90;;
16073;SDS011;8141;52.664;5.074;2023-08-20T12:41:22;3.90;;;1.97;;
16073;SDS011;8141;52.664;5.074;2023-08-20T12:43:48;4.47;;;2.20;;
16073;SDS011;8141;52.664;5.074;2023-08-20T12:46:14;4.23;;;2.07;;
16073;SDS011;8141;52.664;5.074;2023-08-20T12:48:40;4.10;;;2.30;;
16073;SDS011;8141;52.664;5.074;2023-08-20T12:51:06;4.07;;;2.10;;
16073;SDS011;8141;52.664;5.074;2023-08-20T12:53:32;4.43;;;2.60;;
16073;SDS011;8141;52.664;5.074;2023-08-20T12:55:58;3.83;;;2.17;;
16073;SDS011;8141;52.664;5.074;2023-08-20T12:58:23;3.17;;;2.10;;
16073;SDS011;8141;52.664;5.074;2023-08-20T13:00:52;3.47;;;2.13;;
16073;SDS011;8141;52.664;5.074;2023-08-20T13:03:18;4.20;;;2.40;;
16073;SDS011;8141;52.664;5.074;2023-08-20T13:05:44;3.83;;;2.40;;
16073;SDS011;8141;52.664;5.074;2023-08-20T13:08:10;4.07;;;2.37;;
16073;SDS011;8141;52.664;5.074;2023-08-20T13:10:40;5.13;;;2.80;;
16073;SDS011;8141;52.664;5.074;2023-08-20T13:13:08;3.30;;;2.10;;
16073;SDS011;8141;52.664;5.074;2023-08-20T13:15:36;4.20;;;2.83;;
16073;SDS011;8141;52.664;5.074;2023-08-20T13:18:02;4.67;;;2.60;;
16073;SDS011;8141;52.664;5.074;2023-08-20T13:20:29;5.33;;;2.30;;
16073;SDS011;8141;52.664;5.074;2023-08-20T13:22:55;4.20;;;2.50;;
16073;SDS011;8141;52.664;5.074;2023-08-20T13:25:20;5.37;;;2.73;;
16073;SDS011;8141;52.664;5.074;2023-08-20T13:27:47;4.30;;;2.63;;
16073;SDS011;8141;52.664;5.074;2023-08-20T13:30:12;4.57;;;2.57;;
16073;SDS011;8141;52.664;5.074;2023-08-20T13:32:38;4.03;;;2.83;;
16073;SDS011;8141;52.664;5.074;2023-08-20T13:35:04;4.83;;;2.70;;
16073;SDS011;8141;52.664;5.074;2023-08-20T13:37:31;5.03;;;3.27;;
16073;SDS011;8141;52.664;5.074;2023-08-20T13:39:58;5.23;;;3.43;;
16073;SDS011;8141;52.664;5.074;2023-08-20T13:42:24;3.90;;;2.83;;
16073;SDS011;8141;52.664;5.074;2023-08-20T13:44:49;3.23;;;2.67;;
16073;SDS011;8141;52.664;5.074;2023-08-20T13:47:15;3.80;;;2.90;;
16073;SDS011;8141;52.664;5.074;2023-08-20T13:49:41;3.70;;;2.53;;
16073;SDS011;8141;52.664;5.074;2023-08-20T13:52:07;4.03;;;3.00;;
16073;SDS011;8141;52.664;5.074;2023-08-20T13:54:34;4.50;;;2.70;;
16073;SDS011;8141;52.664;5.074;2023-08-20T13:57:01;3.60;;;2.63;;
16073;SDS011;8141;52.664;5.074;2023-08-20T13:59:28;3.37;;;2.73;;
16073;SDS011;8141;52.664;5.074;2023-08-20T14:01:57;4.20;;;3.03;;
16073;SDS011;8141;52.664;5.074;2023-08-20T14:04:23;4.30;;;3.00;;
16073;SDS011;8141;52.664;5.074;2023-08-20T14:06:50;3.53;;;2.77;;
16073;SDS011;8141;52.664;5.074;2023-08-20T14:09:15;3.97;;;3.20;;
16073;SDS011;8141;52.664;5.074;2023-08-20T14:11:45;4.27;;;2.67;;
16073;SDS011;8141;52.664;5.074;2023-08-20T14:14:11;3.80;;;2.70;;
16073;SDS011;8141;52.664;5.074;2023-08-20T14:16:37;4.17;;;2.60;;
16073;SDS011;8141;52.664;5.074;2023-08-20T14:19:03;3.47;;;2.33;;
16073;SDS011;8141;52.664;5.074;2023-08-20T14:21:29;3.63;;;2.77;;
16073;SDS011;8141;52.664;5.074;2023-08-20T14:23:54;3.40;;;2.40;;
16073;SDS011;8141;52.664;5.074;2023-08-20T14:26:23;3.20;;;2.57;;
16073;SDS011;8141;52.664;5.074;2023-08-20T14:28:49;3.43;;;2.33;;
16073;SDS011;8141;52.664;5.074;2023-08-20T14:31:15;4.17;;;2.70;;
16073;SDS011;8141;52.664;5.074;2023-08-20T14:33:41;4.13;;;2.73;;
16073;SDS011;8141;52.664;5.074;2023-08-20T14:36:07;3.93;;;2.83;;
16073;SDS011;8141;52.664;5.074;2023-08-20T14:38:33;3.57;;;2.73;;
16073;SDS011;8141;52.664;5.074;2023-08-20T14:40:59;3.43;;;2.70;;
16073;SDS011;8141;52.664;5.074;2023-08-20T14:43:26;3.63;;;2.63;;
16073;SDS011;8141;52.664;5.074;2023-08-20T14:45:53;2.40;;;2.20;;
16073;SDS011;8141;52.664;5.074;2023-08-20T14:48:20;3.30;;;2.40;;
16073;SDS011;8141;52.664;5.074;2023-08-20T14:50:47;2.27;;;2.07;;
16073;SDS011;8141;52.664;5.074;2023-08-20T14:53:13;3.60;;;2.77;;
16073;SDS011;8141;52.664;5.074;2023-08-20T14:55:39;3.53;;;2.77;;
16073;SDS011;8141;52.664;5.074;2023-08-20T14:58:23;3.40;;;2.80;;
16073;SDS011;8141;52.664;5.074;2023-08-20T15:03:17;3.70;;;2.60;;
16073;SDS011;8141;52.664;5.074;2023-08-20T15:05:42;2.93;;;2.63;;
16073;SDS011;8141;52.664;5.074;2023-08-20T15:08:09;2.57;;;2.30;;
16073;SDS011;8141;52.664;5.074;2023-08-20T15:10:35;3.27;;;2.40;;
16073;SDS011;8141;52.664;5.074;2023-08-20T15:13:01;2.90;;;2.60;;